sensor_id;sensor_type;location;lat;lon;timestamp;pressure;altitude;pressure_sealevel;temperature;humidity
64844;BME280;51310;52.198;5.422;2023-04-04T00:02:05;102869.22;;;0.38;100.00
64844;BME280;51310;52.198;5.422;2023-04-04T00:04:32;102864.22;;;0.28;100.00
64844;BME280;51310;52.198;5.422;2023-04-04T00:06:58;102860.06;;;0.29;100.00
64844;BME280;51310;52.198;5.422;2023-04-04T00:09:24;102857.72;;;0.50;100.00
64844;BME280;51310;52.198;5.422;2023-04-04T00:11:49;102847.66;;;0.55;100.00
64844;BME280;51310;52.198;5.422;2023-04-04T00:14:15;102848.13;;;0.68;100.00
64844;BME280;51310;52.198;5.422;2023-04-04T00:16:41;102841.97;;;0.72;100.00
64844;BME280;51310;52.198;5.422;2023-04-04T00:19:07;102843.13;;;0.58;100.00
64844;BME280;51310;52.198;5.422;2023-04-04T00:21:33;102832.81;;;0.63;100.00
64844;BME280;51310;52.198;5.422;2023-04-04T00:23:59;102834.69;;;0.64;100.00
64844;BME280;51310;52.198;5.422;2023-04-04T00:26:24;102836.44;;;0.59;100.00
64844;BME280;51310;52.198;5.422;2023-04-04T00:28:53;102828.84;;;0.59;100.00
64844;BME280;51310;52.198;5.422;2023-04-04T00:31:20;102832.25;;;0.44;100.00
64844;BME280;51310;52.198;5.422;2023-04-04T00:33:45;102835.03;;;0.30;100.00
64844;BME280;51310;52.198;5.422;2023-04-04T00:36:11;102826.25;;;0.18;100.00
64844;BME280;51310;52.198;5.422;2023-04-04T00:38:38;102831.31;;;0.18;100.00
64844;BME280;51310;52.198;5.422;2023-04-04T00:41:03;102834.53;;;0.17;100.00
64844;BME280;51310;52.198;5.422;2023-04-04T00:43:31;102828.91;;;0.24;100.00
64844;BME280;51310;52.198;5.422;2023-04-04T00:45:57;102824.22;;;0.22;100.00
64844;BME280;51310;52.198;5.422;2023-04-04T00:48:23;102818.47;;;0.07;100.00
64844;BME280;51310;52.198;5.422;2023-04-04T00:50:49;102825.78;;;0.06;100.00
64844;BME280;51310;52.198;5.422;2023-04-04T00:53:15;102826.81;;;0.12;100.00
64844;BME280;51310;52.198;5.422;2023-04-04T00:55:41;102820.94;;;0.17;100.00
64844;BME280;51310;52.198;5.422;2023-04-04T00:58:09;102826.41;;;0.14;100.00
64844;BME280;51310;52.198;5.422;2023-04-04T01:00:36;102831.06;;;0.17;100.00
64844;BME280;51310;52.198;5.422;2023-04-04T01:03:03;102828.03;;;0.14;100.00
64844;BME280;51310;52.198;5.422;2023-04-04T01:05:30;102821.78;;;0.02;100.00
64844;BME280;51310;52.198;5.422;2023-04-04T01:07:57;102821.56;;;0.01;100.00
64844;BME280;51310;52.198;5.422;2023-04-04T01:10:22;102825.84;;;-0.04;100.00
64844;BME280;51310;52.198;5.422;2023-04-04T01:12:49;102818.25;;;-0.04;100.00
64844;BME280;51310;52.198;5.422;2023-04-04T01:15:15;102820.31;;;0.08;100.00
64844;BME280;51310;52.198;5.422;2023-04-04T01:17:41;102816.44;;;0.10;100.00
64844;BME280;51310;52.198;5.422;2023-04-04T01:20:20;102819.38;;;0.08;100.00
64844;BME280;51310;52.198;5.422;2023-04-04T01:22:49;102818.47;;;-0.03;100.00
64844;BME280;51310;52.198;5.422;2023-04-04T01:25:17;102828.53;;;-0.18;100.00
64844;BME280;51310;52.198;5.422;2023-04-04T01:27:43;102825.38;;;0.08;100.00
64844;BME280;51310;52.198;5.422;2023-04-04T01:30:11;102833.81;;;-0.07;100.00
64844;BME280;51310;52.198;5.422;2023-04-04T01:33:28;102831.69;;;-0.09;100.00
64844;BME280;51310;52.198;5.422;2023-04-04T01:36:09;102823.75;;;-0.16;100.00
64844;BME280;51310;52.198;5.422;2023-04-04T01:38:58;102830.41;;;-0.17;100.00
64844;BME280;51310;52.198;5.422;2023-04-04T01:41:32;102825.13;;;-0.38;100.00
64844;BME280;51310;52.198;5.422;2023-04-04T01:44:00;102825.00;;;-0.34;100.00
64844;BME280;51310;52.198;5.422;2023-04-04T01:46:26;102825.50;;;-0.31;100.00
64844;BME280;51310;52.198;5.422;2023-04-04T01:48:52;102828.44;;;-0.24;100.00
64844;BME280;51310;52.198;5.422;2023-04-04T01:51:18;102822.06;;;-0.31;100.00
64844;BME280;51310;52.198;5.422;2023-04-04T01:53:44;102827.34;;;-0.20;100.00
64844;BME280;51310;52.198;5.422;2023-04-04T01:56:09;102824.84;;;-0.30;100.00
64844;BME280;51310;52.198;5.422;2023-04-04T01:58:35;102816.56;;;-0.29;100.00
64844;BME280;51310;52.198;5.422;2023-04-04T02:01:01;102818.31;;;-0.24;100.00
64844;BME280;51310;52.198;5.422;2023-04-04T02:03:27;102813.81;;;-0.40;100.00
64844;BME280;51310;52.198;5.422;2023-04-04T02:05:53;102813.97;;;-0.44;100.00
64844;BME280;51310;52.198;5.422;2023-04-04T02:08:18;102819.94;;;-0.44;100.00
64844;BME280;51310;52.198;5.422;2023-04-04T02:10:44;102823.56;;;-0.47;100.00
64844;BME280;51310;52.198;5.422;2023-04-04T02:13:10;102827.28;;;-0.45;100.00
64844;BME280;51310;52.198;5.422;2023-04-04T02:15:37;102835.91;;;-0.39;100.00
64844;BME280;51310;52.198;5.422;2023-04-04T02:18:02;102831.00;;;-0.43;100.00
64844;BME280;51310;52.198;5.422;2023-04-04T02:20:29;102832.34;;;-0.45;100.00
64844;BME280;51310;52.198;5.422;2023-04-04T02:22:55;102838.06;;;-0.46;100.00
64844;BME280;51310;52.198;5.422;2023-04-04T02:25:23;102841.00;;;-0.49;100.00
64844;BME280;51310;52.198;5.422;2023-04-04T02:27:49;102838.19;;;-0.40;100.00
64844;BME280;51310;52.198;5.422;2023-04-04T02:30:15;102832.84;;;-0.42;100.00
64844;BME280;51310;52.198;5.422;2023-04-04T02:32:41;102830.19;;;-0.48;100.00
64844;BME280;51310;52.198;5.422;2023-04-04T02:35:07;102830.34;;;-0.42;100.00
64844;BME280;51310;52.198;5.422;2023-04-04T02:37:33;102826.22;;;-0.51;100.00
64844;BME280;51310;52.198;5.422;2023-04-04T02:39:59;102812.25;;;-0.49;100.00
64844;BME280;51310;52.198;5.422;2023-04-04T02:42:25;102813.06;;;-0.64;100.00
64844;BME280;51310;52.198;5.422;2023-04-04T02:44:51;102816.53;;;-0.54;100.00
64844;BME280;51310;52.198;5.422;2023-04-04T02:47:16;102808.53;;;-0.51;100.00
64844;BME280;51310;52.198;5.422;2023-04-04T02:49:42;102811.09;;;-0.71;100.00
64844;BME280;51310;52.198;5.422;2023-04-04T02:52:08;102812.28;;;-0.78;100.00
64844;BME280;51310;52.198;5.422;2023-04-04T02:54:33;102801.50;;;-0.87;100.00
64844;BME280;51310;52.198;5.422;2023-04-04T02:56:59;102801.25;;;-0.98;100.00
64844;BME280;51310;52.198;5.422;2023-04-04T02:59:25;102798.34;;;-0.86;100.00
64844;BME280;51310;52.198;5.422;2023-04-04T03:01:50;102797.66;;;-0.85;100.00
64844;BME280;51310;52.198;5.422;2023-04-04T03:04:16;102801.66;;;-0.81;100.00
64844;BME280;51310;52.198;5.422;2023-04-04T03:06:44;102811.88;;;-0.76;100.00
64844;BME280;51310;52.198;5.422;2023-04-04T03:09:13;102810.81;;;-0.72;100.00
64844;BME280;51310;52.198;5.422;2023-04-04T03:11:38;102808.72;;;-0.94;100.00
64844;BME280;51310;52.198;5.422;2023-04-04T03:14:04;102808.59;;;-1.10;100.00
64844;BME280;51310;52.198;5.422;2023-04-04T03:16:31;102806.97;;;-1.09;100.00
64844;BME280;51310;52.198;5.422;2023-04-04T03:18:56;102804.56;;;-1.33;100.00
64844;BME280;51310;52.198;5.422;2023-04-04T03:21:22;102810.13;;;-1.30;100.00
64844;BME280;51310;52.198;5.422;2023-04-04T03:23:48;102811.50;;;-1.32;100.00
64844;BME280;51310;52.198;5.422;2023-04-04T03:26:13;102806.97;;;-1.09;100.00
64844;BME280;51310;52.198;5.422;2023-04-04T03:28:39;102802.56;;;-1.10;100.00
64844;BME280;51310;52.198;5.422;2023-04-04T03:31:06;102792.63;;;-1.14;100.00
64844;BME280;51310;52.198;5.422;2023-04-04T03:33:34;102794.72;;;-1.21;100.00
64844;BME280;51310;52.198;5.422;2023-04-04T03:36:01;102794.19;;;-1.34;100.00
64844;BME280;51310;52.198;5.422;2023-04-04T03:38:27;102789.44;;;-1.42;100.00
64844;BME280;51310;52.198;5.422;2023-04-04T03:41:02;102796.16;;;-1.47;100.00
64844;BME280;51310;52.198;5.422;2023-04-04T03:43:30;102801.84;;;-1.58;100.00
64844;BME280;51310;52.198;5.422;2023-04-04T03:46:01;102798.41;;;-1.58;100.00
64844;BME280;51310;52.198;5.422;2023-04-04T03:48:28;102800.56;;;-1.46;100.00
64844;BME280;51310;52.198;5.422;2023-04-04T03:50:56;102794.31;;;-1.38;100.00
64844;BME280;51310;52.198;5.422;2023-04-04T03:53:23;102801.75;;;-1.54;100.00
64844;BME280;51310;52.198;5.422;2023-04-04T03:55:49;102787.22;;;-1.65;100.00
64844;BME280;51310;52.198;5.422;2023-04-04T03:58:15;102790.78;;;-1.78;100.00
64844;BME280;51310;52.198;5.422;2023-04-04T04:00:41;102797.28;;;-1.84;100.00
64844;BME280;51310;52.198;5.422;2023-04-04T04:03:07;102795.25;;;-1.91;100.00
64844;BME280;51310;52.198;5.422;2023-04-04T04:05:32;102796.69;;;-1.97;100.00
64844;BME280;51310;52.198;5.422;2023-04-04T04:07:58;102806.38;;;-2.04;100.00
64844;BME280;51310;52.198;5.422;2023-04-04T04:10:24;102805.00;;;-2.12;100.00
64844;BME280;51310;52.198;5.422;2023-04-04T04:12:49;102803.66;;;-2.19;100.00
64844;BME280;51310;52.198;5.422;2023-04-04T04:15:15;102806.19;;;-2.19;100.00
64844;BME280;51310;52.198;5.422;2023-04-04T04:17:41;102813.47;;;-2.21;100.00
64844;BME280;51310;52.198;5.422;2023-04-04T04:20:08;102815.16;;;-2.25;100.00
64844;BME280;51310;52.198;5.422;2023-04-04T04:22:34;102811.56;;;-2.32;100.00
64844;BME280;51310;52.198;5.422;2023-04-04T04:25:00;102805.97;;;-2.35;100.00
64844;BME280;51310;52.198;5.422;2023-04-04T04:27:26;102808.78;;;-2.33;100.00
64844;BME280;51310;52.198;5.422;2023-04-04T04:29:52;102816.97;;;-2.34;100.00
64844;BME280;51310;52.198;5.422;2023-04-04T04:32:18;102807.78;;;-2.43;100.00
64844;BME280;51310;52.198;5.422;2023-04-04T04:34:44;102817.06;;;-2.48;100.00
64844;BME280;51310;52.198;5.422;2023-04-04T04:37:10;102817.47;;;-2.41;100.00
64844;BME280;51310;52.198;5.422;2023-04-04T04:39:35;102815.16;;;-2.25;100.00
64844;BME280;51310;52.198;5.422;2023-04-04T04:42:01;102822.25;;;-2.19;100.00
64844;BME280;51310;52.198;5.422;2023-04-04T04:44:27;102810.63;;;-2.32;100.00
64844;BME280;51310;52.198;5.422;2023-04-04T04:46:53;102817.19;;;-2.19;100.00
64844;BME280;51310;52.198;5.422;2023-04-04T04:49:19;102815.47;;;-2.14;100.00
64844;BME280;51310;52.198;5.422;2023-04-04T04:51:45;102816.50;;;-2.28;100.00
64844;BME280;51310;52.198;5.422;2023-04-04T04:54:10;102821.00;;;-2.31;100.00
64844;BME280;51310;52.198;5.422;2023-04-04T04:56:36;102824.63;;;-2.24;100.00
64844;BME280;51310;52.198;5.422;2023-04-04T04:59:03;102832.53;;;-2.03;100.00
64844;BME280;51310;52.198;5.422;2023-04-04T05:01:28;102827.81;;;-1.92;100.00
64844;BME280;51310;52.198;5.422;2023-04-04T05:03:54;102824.78;;;-1.86;100.00
64844;BME280;51310;52.198;5.422;2023-04-04T05:06:20;102818.53;;;-1.88;100.00
64844;BME280;51310;52.198;5.422;2023-04-04T05:08:46;102817.59;;;-1.88;100.00
64844;BME280;51310;52.198;5.422;2023-04-04T05:11:12;102821.78;;;-2.02;100.00
64844;BME280;51310;52.198;5.422;2023-04-04T05:13:37;102823.56;;;-2.21;100.00
64844;BME280;51310;52.198;5.422;2023-04-04T05:16:04;102823.06;;;-2.38;100.00
64844;BME280;51310;52.198;5.422;2023-04-04T05:18:30;102816.69;;;-2.36;100.00
64844;BME280;51310;52.198;5.422;2023-04-04T05:20:56;102827.69;;;-2.12;100.00
64844;BME280;51310;52.198;5.422;2023-04-04T05:23:22;102818.88;;;-2.00;100.00
64844;BME280;51310;52.198;5.422;2023-04-04T05:25:49;102826.94;;;-2.07;100.00
64844;BME280;51310;52.198;5.422;2023-04-04T05:28:16;102831.00;;;-1.93;100.00
64844;BME280;51310;52.198;5.422;2023-04-04T05:30:42;102828.44;;;-2.03;100.00
64844;BME280;51310;52.198;5.422;2023-04-04T05:33:07;102829.81;;;-2.19;100.00
64844;BME280;51310;52.198;5.422;2023-04-04T05:35:33;102834.22;;;-2.18;100.00
64844;BME280;51310;52.198;5.422;2023-04-04T05:37:59;102831.56;;;-2.14;100.00
64844;BME280;51310;52.198;5.422;2023-04-04T05:40:24;102833.31;;;-2.09;100.00
64844;BME280;51310;52.198;5.422;2023-04-04T05:42:55;102828.66;;;-1.78;100.00
64844;BME280;51310;52.198;5.422;2023-04-04T05:45:21;102826.94;;;-1.73;100.00
64844;BME280;51310;52.198;5.422;2023-04-04T05:47:46;102831.41;;;-1.86;100.00
64844;BME280;51310;52.198;5.422;2023-04-04T05:50:12;102838.84;;;-1.82;100.00
64844;BME280;51310;52.198;5.422;2023-04-04T05:52:38;102833.22;;;-1.95;100.00
64844;BME280;51310;52.198;5.422;2023-04-04T05:55:04;102835.34;;;-2.02;100.00
64844;BME280;51310;52.198;5.422;2023-04-04T05:57:30;102836.53;;;-2.00;100.00
64844;BME280;51310;52.198;5.422;2023-04-04T05:59:57;102834.81;;;-1.95;100.00
64844;BME280;51310;52.198;5.422;2023-04-04T06:02:23;102828.63;;;-1.88;100.00
64844;BME280;51310;52.198;5.422;2023-04-04T06:04:49;102832.38;;;-1.76;100.00
64844;BME280;51310;52.198;5.422;2023-04-04T06:07:15;102834.94;;;-1.66;100.00
64844;BME280;51310;52.198;5.422;2023-04-04T06:09:41;102837.94;;;-1.39;100.00
64844;BME280;51310;52.198;5.422;2023-04-04T06:12:07;102838.44;;;-1.36;100.00
64844;BME280;51310;52.198;5.422;2023-04-04T06:14:36;102838.09;;;-1.34;100.00
64844;BME280;51310;52.198;5.422;2023-04-04T06:17:03;102832.09;;;-1.25;100.00
64844;BME280;51310;52.198;5.422;2023-04-04T06:19:29;102828.66;;;-1.15;100.00
64844;BME280;51310;52.198;5.422;2023-04-04T06:21:55;102818.28;;;-1.07;100.00
64844;BME280;51310;52.198;5.422;2023-04-04T06:24:21;102819.34;;;-1.11;100.00
64844;BME280;51310;52.198;5.422;2023-04-04T06:26:47;102822.66;;;-1.06;100.00
64844;BME280;51310;52.198;5.422;2023-04-04T06:29:19;102823.19;;;-0.93;100.00
64844;BME280;51310;52.198;5.422;2023-04-04T06:31:44;102823.19;;;-0.74;100.00
64844;BME280;51310;52.198;5.422;2023-04-04T06:34:10;102826.38;;;-0.65;100.00
64844;BME280;51310;52.198;5.422;2023-04-04T06:36:36;102833.69;;;-0.47;100.00
64844;BME280;51310;52.198;5.422;2023-04-04T06:39:02;102835.13;;;-0.34;100.00
64844;BME280;51310;52.198;5.422;2023-04-04T06:41:27;102835.31;;;-0.13;100.00
64844;BME280;51310;52.198;5.422;2023-04-04T06:43:53;102835.63;;;0.04;100.00
64844;BME280;51310;52.198;5.422;2023-04-04T06:46:19;102836.97;;;0.02;100.00
64844;BME280;51310;52.198;5.422;2023-04-04T06:48:44;102843.66;;;0.02;100.00
64844;BME280;51310;52.198;5.422;2023-04-04T06:51:11;102839.06;;;0.14;100.00
64844;BME280;51310;52.198;5.422;2023-04-04T06:53:37;102842.38;;;0.19;100.00
64844;BME280;51310;52.198;5.422;2023-04-04T06:56:03;102842.78;;;0.16;100.00
64844;BME280;51310;52.198;5.422;2023-04-04T06:58:29;102832.38;;;0.25;100.00
64844;BME280;51310;52.198;5.422;2023-04-04T07:00:55;102835.81;;;0.25;100.00
64844;BME280;51310;52.198;5.422;2023-04-04T07:03:24;102830.59;;;0.29;100.00
64844;BME280;51310;52.198;5.422;2023-04-04T07:05:51;102827.69;;;0.47;100.00
64844;BME280;51310;52.198;5.422;2023-04-04T07:08:16;102834.34;;;0.56;100.00
64844;BME280;51310;52.198;5.422;2023-04-04T07:10:42;102827.84;;;0.68;100.00
64844;BME280;51310;52.198;5.422;2023-04-04T07:13:08;102829.91;;;0.80;100.00
64844;BME280;51310;52.198;5.422;2023-04-04T07:15:34;102832.88;;;0.93;100.00
64844;BME280;51310;52.198;5.422;2023-04-04T07:18:00;102835.69;;;1.10;100.00
64844;BME280;51310;52.198;5.422;2023-04-04T07:20:26;102841.25;;;1.13;100.00
64844;BME280;51310;52.198;5.422;2023-04-04T07:22:53;102837.19;;;1.19;100.00
64844;BME280;51310;52.198;5.422;2023-04-04T07:25:19;102834.03;;;1.41;100.00
64844;BME280;51310;52.198;5.422;2023-04-04T07:27:45;102830.03;;;1.53;100.00
64844;BME280;51310;52.198;5.422;2023-04-04T07:30:12;102826.72;;;1.64;100.00
64844;BME280;51310;52.198;5.422;2023-04-04T07:32:38;102833.75;;;1.71;100.00
64844;BME280;51310;52.198;5.422;2023-04-04T07:35:05;102836.19;;;1.80;100.00
64844;BME280;51310;52.198;5.422;2023-04-04T07:37:31;102827.69;;;1.85;100.00
64844;BME280;51310;52.198;5.422;2023-04-04T07:39:58;102830.00;;;1.84;100.00
64844;BME280;51310;52.198;5.422;2023-04-04T07:42:24;102827.16;;;1.98;100.00
64844;BME280;51310;52.198;5.422;2023-04-04T07:44:53;102825.31;;;1.97;100.00
64844;BME280;51310;52.198;5.422;2023-04-04T07:47:19;102834.53;;;2.17;100.00
64844;BME280;51310;52.198;5.422;2023-04-04T07:49:45;102833.88;;;2.18;100.00
64844;BME280;51310;52.198;5.422;2023-04-04T07:52:11;102837.88;;;2.28;100.00
64844;BME280;51310;52.198;5.422;2023-04-04T07:54:37;102826.84;;;2.33;100.00
64844;BME280;51310;52.198;5.422;2023-04-04T07:57:04;102831.81;;;2.42;100.00
64844;BME280;51310;52.198;5.422;2023-04-04T07:59:31;102828.19;;;2.52;100.00
64844;BME280;51310;52.198;5.422;2023-04-04T08:01:57;102825.66;;;2.52;100.00
64844;BME280;51310;52.198;5.422;2023-04-04T08:04:23;102822.81;;;2.71;100.00
64844;BME280;51310;52.198;5.422;2023-04-04T08:06:49;102823.53;;;2.76;100.00
64844;BME280;51310;52.198;5.422;2023-04-04T08:09:14;102816.97;;;2.93;100.00
64844;BME280;51310;52.198;5.422;2023-04-04T08:11:40;102828.22;;;2.84;100.00
64844;BME280;51310;52.198;5.422;2023-04-04T08:14:07;102824.06;;;2.84;100.00
64844;BME280;51310;52.198;5.422;2023-04-04T08:16:37;102822.78;;;2.98;100.00
64844;BME280;51310;52.198;5.422;2023-04-04T08:19:03;102821.00;;;3.02;100.00
64844;BME280;51310;52.198;5.422;2023-04-04T08:21:29;102818.38;;;3.29;100.00
64844;BME280;51310;52.198;5.422;2023-04-04T08:23:55;102819.75;;;3.27;100.00
64844;BME280;51310;52.198;5.422;2023-04-04T08:26:21;102812.06;;;3.21;100.00
64844;BME280;51310;52.198;5.422;2023-04-04T08:28:47;102817.69;;;3.30;100.00
64844;BME280;51310;52.198;5.422;2023-04-04T08:31:13;102821.25;;;3.47;95.33
64844;BME280;51310;52.198;5.422;2023-04-04T08:33:39;102805.31;;;3.54;95.34
64844;BME280;51310;52.198;5.422;2023-04-04T08:36:05;102806.53;;;3.62;95.42
64844;BME280;51310;52.198;5.422;2023-04-04T08:38:30;102808.66;;;3.70;96.38
64844;BME280;51310;52.198;5.422;2023-04-04T08:40:56;102804.75;;;3.83;94.50
64844;BME280;51310;52.198;5.422;2023-04-04T08:43:24;102810.38;;;3.98;88.66
64844;BME280;51310;52.198;5.422;2023-04-04T08:45:53;102803.19;;;4.01;85.79
64844;BME280;51310;52.198;5.422;2023-04-04T08:48:20;102809.25;;;4.13;76.94
64844;BME280;51310;52.198;5.422;2023-04-04T08:50:48;102801.63;;;4.24;77.79
64844;BME280;51310;52.198;5.422;2023-04-04T08:53:15;102806.97;;;4.37;78.26
64844;BME280;51310;52.198;5.422;2023-04-04T08:55:42;102806.50;;;4.34;74.48
64844;BME280;51310;52.198;5.422;2023-04-04T08:58:08;102809.75;;;4.38;69.93
64844;BME280;51310;52.198;5.422;2023-04-04T09:00:34;102803.06;;;4.39;65.18
64844;BME280;51310;52.198;5.422;2023-04-04T09:05:48;102804.19;;;4.46;65.10
64844;BME280;51310;52.198;5.422;2023-04-04T09:08:17;102811.19;;;4.59;65.60
64844;BME280;51310;52.198;5.422;2023-04-04T09:10:44;102809.31;;;4.58;63.51
64844;BME280;51310;52.198;5.422;2023-04-04T09:13:10;102808.16;;;4.61;63.88
64844;BME280;51310;52.198;5.422;2023-04-04T09:15:45;102812.34;;;4.61;64.23
64844;BME280;51310;52.198;5.422;2023-04-04T09:18:11;102803.31;;;4.80;64.79
64844;BME280;51310;52.198;5.422;2023-04-04T09:20:42;102805.63;;;4.84;63.21
64844;BME280;51310;52.198;5.422;2023-04-04T09:23:13;102809.78;;;4.83;63.26
64844;BME280;51310;52.198;5.422;2023-04-04T09:25:50;102804.69;;;4.78;64.14
64844;BME280;51310;52.198;5.422;2023-04-04T09:28:17;102803.28;;;4.91;66.86
64844;BME280;51310;52.198;5.422;2023-04-04T09:30:46;102802.59;;;4.81;67.76
64844;BME280;51310;52.198;5.422;2023-04-04T09:33:14;102800.72;;;4.85;69.95
64844;BME280;51310;52.198;5.422;2023-04-04T09:35:48;102805.59;;;5.06;68.19
64844;BME280;51310;52.198;5.422;2023-04-04T09:38:22;102797.22;;;5.07;67.48
64844;BME280;51310;52.198;5.422;2023-04-04T09:40:48;102795.38;;;5.12;65.81
64844;BME280;51310;52.198;5.422;2023-04-04T09:43:14;102787.00;;;5.19;65.65
64844;BME280;51310;52.198;5.422;2023-04-04T09:45:44;102786.97;;;5.24;64.25
64844;BME280;51310;52.198;5.422;2023-04-04T09:48:10;102790.22;;;5.29;62.32
64844;BME280;51310;52.198;5.422;2023-04-04T09:50:46;102782.81;;;5.25;60.91
64844;BME280;51310;52.198;5.422;2023-04-04T09:53:18;102788.09;;;5.43;61.08
64844;BME280;51310;52.198;5.422;2023-04-04T09:55:53;102788.03;;;5.54;61.28
64844;BME280;51310;52.198;5.422;2023-04-04T09:58:28;102782.75;;;5.47;60.83
64844;BME280;51310;52.198;5.422;2023-04-04T10:00:59;102779.03;;;5.51;60.21
64844;BME280;51310;52.198;5.422;2023-04-04T10:03:26;102780.88;;;5.52;60.14
64844;BME280;51310;52.198;5.422;2023-04-04T10:06:02;102775.50;;;5.50;59.98
64844;BME280;51310;52.198;5.422;2023-04-04T10:08:29;102779.94;;;5.51;60.50
64844;BME280;51310;52.198;5.422;2023-04-04T10:11:02;102773.81;;;5.68;61.37
64844;BME280;51310;52.198;5.422;2023-04-04T10:13:30;102776.38;;;5.68;59.75
64844;BME280;51310;52.198;5.422;2023-04-04T10:15:58;102767.59;;;5.60;60.81
64844;BME280;51310;52.198;5.422;2023-04-04T10:18:27;102769.78;;;5.87;60.39
64844;BME280;51310;52.198;5.422;2023-04-04T10:21:03;102762.09;;;5.92;58.78
64844;BME280;51310;52.198;5.422;2023-04-04T10:23:29;102762.59;;;5.84;57.74
64844;BME280;51310;52.198;5.422;2023-04-04T10:25:57;102771.19;;;5.85;58.15
64844;BME280;51310;52.198;5.422;2023-04-04T10:28:25;102766.75;;;6.01;59.64
64844;BME280;51310;52.198;5.422;2023-04-04T10:31:02;102761.13;;;6.03;58.96
64844;BME280;51310;52.198;5.422;2023-04-04T10:36:10;102754.94;;;6.25;59.75
64844;BME280;51310;52.198;5.422;2023-04-04T10:38:52;102748.94;;;6.19;57.84
64844;BME280;51310;52.198;5.422;2023-04-04T10:41:20;102745.34;;;6.00;56.08
64844;BME280;51310;52.198;5.422;2023-04-04T10:43:53;102748.34;;;6.03;56.57
64844;BME280;51310;52.198;5.422;2023-04-04T10:46:23;102746.84;;;6.22;55.44
64844;BME280;51310;52.198;5.422;2023-04-04T10:48:56;102744.81;;;6.14;54.17
64844;BME280;51310;52.198;5.422;2023-04-04T10:51:25;102736.13;;;6.25;54.83
64844;BME280;51310;52.198;5.422;2023-04-04T10:53:52;102729.63;;;6.21;56.71
64844;BME280;51310;52.198;5.422;2023-04-04T10:56:19;102731.47;;;6.52;56.48
64844;BME280;51310;52.198;5.422;2023-04-04T10:58:48;102738.34;;;6.64;56.44
64844;BME280;51310;52.198;5.422;2023-04-04T11:01:14;102727.84;;;6.68;56.69
64844;BME280;51310;52.198;5.422;2023-04-04T11:04:17;102724.00;;;6.59;55.75
64844;BME280;51310;52.198;5.422;2023-04-04T11:09:51;102720.28;;;6.57;56.14
64844;BME280;51310;52.198;5.422;2023-04-04T11:12:44;102720.31;;;6.51;55.89
64844;BME280;51310;52.198;5.422;2023-04-04T11:15:12;102722.06;;;6.64;55.33
64844;BME280;51310;52.198;5.422;2023-04-04T11:17:54;102713.53;;;6.57;55.72
64844;BME280;51310;52.198;5.422;2023-04-04T11:20:23;102714.06;;;6.73;55.96
64844;BME280;51310;52.198;5.422;2023-04-04T11:23:18;102709.44;;;6.71;55.42
64844;BME280;51310;52.198;5.422;2023-04-04T11:25:54;102711.84;;;6.88;55.44
64844;BME280;51310;52.198;5.422;2023-04-04T11:34:08;102703.78;;;6.79;54.73
64844;BME280;51310;52.198;5.422;2023-04-04T11:39:12;102695.50;;;7.30;54.25
64844;BME280;51310;52.198;5.422;2023-04-04T11:42:09;102699.16;;;6.76;52.66
64844;BME280;51310;52.198;5.422;2023-04-04T11:45:01;102697.16;;;6.87;52.84
64844;BME280;51310;52.198;5.422;2023-04-04T11:47:28;102699.13;;;7.01;52.74
64844;BME280;51310;52.198;5.422;2023-04-04T11:49:56;102696.28;;;7.23;50.48
64844;BME280;51310;52.198;5.422;2023-04-04T11:52:22;102692.13;;;7.24;51.16
64844;BME280;51310;52.198;5.422;2023-04-04T11:54:51;102690.72;;;7.38;52.71
64844;BME280;51310;52.198;5.422;2023-04-04T11:57:19;102686.19;;;7.49;52.41
64844;BME280;51310;52.198;5.422;2023-04-04T11:59:48;102685.38;;;7.74;53.40
64844;BME280;51310;52.198;5.422;2023-04-04T12:02:25;102684.47;;;7.55;50.96
64844;BME280;51310;52.198;5.422;2023-04-04T12:04:58;102681.16;;;7.74;53.45
64844;BME280;51310;52.198;5.422;2023-04-04T12:07:25;102678.28;;;7.66;51.87
64844;BME280;51310;52.198;5.422;2023-04-04T12:09:51;102668.75;;;7.65;52.14
64844;BME280;51310;52.198;5.422;2023-04-04T12:12:18;102659.63;;;7.67;51.62
64844;BME280;51310;52.198;5.422;2023-04-04T12:14:44;102665.38;;;7.71;52.82
64844;BME280;51310;52.198;5.422;2023-04-04T12:17:10;102660.25;;;7.71;52.16
64844;BME280;51310;52.198;5.422;2023-04-04T12:19:38;102653.09;;;7.81;51.35
64844;BME280;51310;52.198;5.422;2023-04-04T12:22:04;102647.22;;;7.70;53.05
64844;BME280;51310;52.198;5.422;2023-04-04T12:24:33;102645.31;;;7.87;53.48
64844;BME280;51310;52.198;5.422;2023-04-04T12:26:59;102648.28;;;7.90;51.34
64844;BME280;51310;52.198;5.422;2023-04-04T12:29:26;102641.25;;;8.08;51.85
64844;BME280;51310;52.198;5.422;2023-04-04T12:31:54;102643.19;;;8.03;51.42
64844;BME280;51310;52.198;5.422;2023-04-04T12:34:28;102638.69;;;8.08;51.85
64844;BME280;51310;52.198;5.422;2023-04-04T12:36:59;102630.59;;;8.05;51.39
64844;BME280;51310;52.198;5.422;2023-04-04T12:39:27;102629.56;;;8.10;51.74
64844;BME280;51310;52.198;5.422;2023-04-04T12:41:58;102630.22;;;8.14;51.70
64844;BME280;51310;52.198;5.422;2023-04-04T12:44:31;102635.63;;;8.10;52.59
64844;BME280;51310;52.198;5.422;2023-04-04T12:47:03;102626.28;;;8.11;51.83
64844;BME280;51310;52.198;5.422;2023-04-04T12:49:40;102619.25;;;8.41;51.87
64844;BME280;51310;52.198;5.422;2023-04-04T12:52:19;102611.19;;;7.94;52.13
64844;BME280;51310;52.198;5.422;2023-04-04T12:54:48;102624.53;;;8.04;51.71
64844;BME280;51310;52.198;5.422;2023-04-04T12:57:23;102615.63;;;8.20;51.83
64844;BME280;51310;52.198;5.422;2023-04-04T12:59:49;102617.47;;;8.21;51.43
64844;BME280;51310;52.198;5.422;2023-04-04T13:02:21;102607.91;;;8.20;52.15
64844;BME280;51310;52.198;5.422;2023-04-04T13:04:52;102604.88;;;8.49;51.38
64844;BME280;51310;52.198;5.422;2023-04-04T13:07:34;102604.09;;;8.43;51.71
64844;BME280;51310;52.198;5.422;2023-04-04T13:10:04;102597.69;;;8.59;50.79
64844;BME280;51310;52.198;5.422;2023-04-04T13:12:59;102590.22;;;8.48;50.82